📊 Raw Sensor Data

Showing records 49501 to 49525 of 85,120 total

ID Distance (ft) Battery V Battery A Int Temp (°F) Int Humid (%) Ext Temp (°F) Solar V RSSI SNR Time Stamp
35632 -- 4.14 24 66 44 62 4.50 -85 8 03/21/2025 05:00 PM
35631 -- 4.07 28 69 44 62 4.50 -85 8 03/21/2025 04:45 PM
35630 -- 4.09 0 77 38 63 5.10 -86 8 03/21/2025 04:30 PM
35629 -- 4.03 0 79 36 71 5.10 -85 9 03/21/2025 04:15 PM
35628 -- 4.14 0 72 38 63 5.10 -84 8 03/21/2025 04:00 PM
35627 -- 4.03 0 69 40 63 5.10 -84 8 03/21/2025 03:45 PM
35626 -- 4.03 0 68 41 62 5.10 -83 8 03/21/2025 03:30 PM
35625 -- 4.12 0 69 40 62 5.10 -83 8 03/21/2025 03:15 PM
35624 -- 4.03 0 71 39 63 5.10 -85 8 03/21/2025 03:00 PM
35623 15.3 4.03 0 69 40 63 5.10 -84 7 03/21/2025 02:45 PM
35622 -- 4.03 0 69 40 62 5.10 -84 8 03/21/2025 02:30 PM
35621 -- 4.03 0 69 40 61 5.10 -83 8 03/21/2025 02:16 PM
35620 -- 4.04 0 70 39 61 5.10 -84 9 03/21/2025 02:00 PM
35619 -- 4.03 0 70 39 62 5.10 -84 8 03/21/2025 01:45 PM
35618 -- 4.03 0 71 38 62 5.10 -85 8 03/21/2025 01:30 PM
35617 -- 4.03 0 69 38 61 5.10 -84 7 03/21/2025 01:15 PM
35616 -- 4.04 0 69 37 62 5.10 -83 8 03/21/2025 01:00 PM
35615 -- 4.03 0 68 37 60 5.10 -85 8 03/21/2025 12:46 PM
35614 -- 4.03 0 66 38 59 5.10 -83 8 03/21/2025 12:30 PM
35613 -- 4.03 0 64 38 58 5.10 -83 8 03/21/2025 12:15 PM
35612 -- 4.10 0 62 39 57 5.10 -84 8 03/21/2025 11:46 AM
35611 -- 4.03 5 61 38 58 5.10 -84 8 03/21/2025 11:30 AM
35610 -- 4.03 5 61 38 59 5.10 -82 8 03/21/2025 11:15 AM
35609 -- 4.03 0 60 38 55 5.10 -84 8 03/21/2025 11:00 AM
35608 -- 4.03 0 60 37 55 5.10 -83 8 03/21/2025 10:46 AM